sensor_id;sensor_type;location;lat;lon;timestamp;temperature;humidity
45137;DHT22;30894;51.740;19.498;2023-05-25T00:08:54;12.30;89.20
45137;DHT22;30894;51.740;19.498;2023-05-25T00:12:11;12.30;89.40
45137;DHT22;30894;51.740;19.498;2023-05-25T00:19:01;12.20;89.60
45137;DHT22;30894;51.740;19.498;2023-05-25T00:22:14;12.20;89.70
45137;DHT22;30894;51.740;19.498;2023-05-25T00:25:28;12.20;89.90
45137;DHT22;30894;51.740;19.498;2023-05-25T00:28:24;12.20;90.00
45137;DHT22;30894;51.740;19.498;2023-05-25T00:38:12;12.20;90.20
45137;DHT22;30894;51.740;19.498;2023-05-25T00:41:22;12.20;90.50
45137;DHT22;30894;51.740;19.498;2023-05-25T00:44:59;12.20;90.30
45137;DHT22;30894;51.740;19.498;2023-05-25T00:47:54;12.20;90.40
45137;DHT22;30894;51.740;19.498;2023-05-25T00:51:14;12.20;90.40
45137;DHT22;30894;51.740;19.498;2023-05-25T00:55:02;12.20;90.50
45137;DHT22;30894;51.740;19.498;2023-05-25T00:58:18;12.20;90.60
45137;DHT22;30894;51.740;19.498;2023-05-25T01:01:36;12.20;90.60
45137;DHT22;30894;51.740;19.498;2023-05-25T01:05:20;12.20;90.70
45137;DHT22;30894;51.740;19.498;2023-05-25T01:08:42;12.20;90.70
45137;DHT22;30894;51.740;19.498;2023-05-25T01:12:21;12.20;90.80
45137;DHT22;30894;51.740;19.498;2023-05-25T01:15:42;12.20;90.90
45137;DHT22;30894;51.740;19.498;2023-05-25T01:24:57;12.10;91.00
45137;DHT22;30894;51.740;19.498;2023-05-25T01:28:24;12.10;91.10
45137;DHT22;30894;51.740;19.498;2023-05-25T01:32:06;12.20;91.10
45137;DHT22;30894;51.740;19.498;2023-05-25T01:39:00;12.20;91.10
45137;DHT22;30894;51.740;19.498;2023-05-25T01:42:13;12.20;91.20
45137;DHT22;30894;51.740;19.498;2023-05-25T01:52:54;12.10;91.50
45137;DHT22;30894;51.740;19.498;2023-05-25T01:56:12;12.10;91.60
45137;DHT22;30894;51.740;19.498;2023-05-25T01:59:15;12.10;91.60
45137;DHT22;30894;51.740;19.498;2023-05-25T02:05:03;12.00;91.80
45137;DHT22;30894;51.740;19.498;2023-05-25T02:07:57;12.00;91.90
45137;DHT22;30894;51.740;19.498;2023-05-25T02:11:24;12.00;92.00
45137;DHT22;30894;51.740;19.498;2023-05-25T02:14:35;12.00;92.10
45137;DHT22;30894;51.740;19.498;2023-05-25T02:21:10;12.00;92.30
45137;DHT22;30894;51.740;19.498;2023-05-25T02:24:44;11.90;92.30
45137;DHT22;30894;51.740;19.498;2023-05-25T02:27:51;11.90;92.30
45137;DHT22;30894;51.740;19.498;2023-05-25T02:31:19;11.90;92.70
45137;DHT22;30894;51.740;19.498;2023-05-25T02:34:43;11.90;92.50
45137;DHT22;30894;51.740;19.498;2023-05-25T02:37:41;11.90;92.50
45137;DHT22;30894;51.740;19.498;2023-05-25T02:40:29;11.80;92.60
45137;DHT22;30894;51.740;19.498;2023-05-25T02:43:56;11.80;92.70
45137;DHT22;30894;51.740;19.498;2023-05-25T02:50:53;11.70;92.90
45137;DHT22;30894;51.740;19.498;2023-05-25T02:54:04;11.70;93.00
45137;DHT22;30894;51.740;19.498;2023-05-25T02:57:18;11.60;93.10
45137;DHT22;30894;51.740;19.498;2023-05-25T03:00:25;11.60;93.20
45137;DHT22;30894;51.740;19.498;2023-05-25T03:03:56;11.60;93.30
45137;DHT22;30894;51.740;19.498;2023-05-25T03:07:11;11.60;93.40
45137;DHT22;30894;51.740;19.498;2023-05-25T03:10:03;11.50;93.50
45137;DHT22;30894;51.740;19.498;2023-05-25T03:13:07;11.50;93.60
45137;DHT22;30894;51.740;19.498;2023-05-25T03:16:11;11.50;93.80
45137;DHT22;30894;51.740;19.498;2023-05-25T03:19:09;11.40;93.90
45137;DHT22;30894;51.740;19.498;2023-05-25T03:22:18;11.40;94.10
45137;DHT22;30894;51.740;19.498;2023-05-25T03:25:27;11.40;94.20
45137;DHT22;30894;51.740;19.498;2023-05-25T03:30:56;11.40;94.30
45137;DHT22;30894;51.740;19.498;2023-05-25T03:34:14;11.30;94.50
45137;DHT22;30894;51.740;19.498;2023-05-25T03:36:57;11.30;94.60
45137;DHT22;30894;51.740;19.498;2023-05-25T03:39:57;11.30;94.70
45137;DHT22;30894;51.740;19.498;2023-05-25T03:42:50;11.30;94.80
45137;DHT22;30894;51.740;19.498;2023-05-25T03:45:44;11.30;94.90
45137;DHT22;30894;51.740;19.498;2023-05-25T03:48:44;11.30;94.90
45137;DHT22;30894;51.740;19.498;2023-05-25T03:51:48;11.30;94.90
45137;DHT22;30894;51.740;19.498;2023-05-25T03:54:35;11.40;94.90
45137;DHT22;30894;51.740;19.498;2023-05-25T03:57:57;11.40;95.00
45137;DHT22;30894;51.740;19.498;2023-05-25T04:00:49;11.40;95.10
45137;DHT22;30894;51.740;19.498;2023-05-25T04:03:52;11.40;95.00
45137;DHT22;30894;51.740;19.498;2023-05-25T04:06:52;11.40;95.10
45137;DHT22;30894;51.740;19.498;2023-05-25T04:10:11;11.50;95.10
45137;DHT22;30894;51.740;19.498;2023-05-25T04:13:12;11.50;95.20
45137;DHT22;30894;51.740;19.498;2023-05-25T04:16:17;11.50;95.30
45137;DHT22;30894;51.740;19.498;2023-05-25T04:19:20;11.50;95.30
45137;DHT22;30894;51.740;19.498;2023-05-25T04:22:20;11.50;95.30
45137;DHT22;30894;51.740;19.498;2023-05-25T04:25:18;11.50;95.40
45137;DHT22;30894;51.740;19.498;2023-05-25T04:28:20;11.60;95.50
45137;DHT22;30894;51.740;19.498;2023-05-25T04:31:17;11.60;95.40
45137;DHT22;30894;51.740;19.498;2023-05-25T04:38:33;11.70;95.40
45137;DHT22;30894;51.740;19.498;2023-05-25T04:41:32;11.80;95.30
45137;DHT22;30894;51.740;19.498;2023-05-25T04:45:17;11.80;95.30
45137;DHT22;30894;51.740;19.498;2023-05-25T04:48:46;11.90;95.30
45137;DHT22;30894;51.740;19.498;2023-05-25T04:52:28;12.00;95.40
45137;DHT22;30894;51.740;19.498;2023-05-25T04:55:34;12.10;95.10
45137;DHT22;30894;51.740;19.498;2023-05-25T05:06:28;12.00;95.30
45137;DHT22;30894;51.740;19.498;2023-05-25T05:16:19;12.30;95.10
45137;DHT22;30894;51.740;19.498;2023-05-25T05:19:26;12.40;94.90
45137;DHT22;30894;51.740;19.498;2023-05-25T05:22:39;12.40;95.00
45137;DHT22;30894;51.740;19.498;2023-05-25T05:25:35;12.50;94.80
45137;DHT22;30894;51.740;19.498;2023-05-25T05:28:43;12.60;94.50
45137;DHT22;30894;51.740;19.498;2023-05-25T05:34:01;13.10;93.60
45137;DHT22;30894;51.740;19.498;2023-05-25T05:41:15;13.50;93.00
45137;DHT22;30894;51.740;19.498;2023-05-25T05:46:55;13.60;92.60
45137;DHT22;30894;51.740;19.498;2023-05-25T05:50:16;13.90;92.50
45137;DHT22;30894;51.740;19.498;2023-05-25T05:53:33;14.20;91.90
45137;DHT22;30894;51.740;19.498;2023-05-25T05:56:51;14.40;91.40
45137;DHT22;30894;51.740;19.498;2023-05-25T05:59:49;14.60;91.00
45137;DHT22;30894;51.740;19.498;2023-05-25T06:03:39;14.70;90.90
45137;DHT22;30894;51.740;19.498;2023-05-25T06:20:38;15.10;90.50
45137;DHT22;30894;51.740;19.498;2023-05-25T06:23:44;15.20;90.40
45137;DHT22;30894;51.740;19.498;2023-05-25T06:30:22;15.40;90.30
45137;DHT22;30894;51.740;19.498;2023-05-25T06:44:29;15.20;90.60
45137;DHT22;30894;51.740;19.498;2023-05-25T06:48:21;15.20;90.80
45137;DHT22;30894;51.740;19.498;2023-05-25T07:02:03;15.90;89.90
45137;DHT22;30894;51.740;19.498;2023-05-25T07:05:41;16.10;89.10
45137;DHT22;30894;51.740;19.498;2023-05-25T07:09:00;16.40;88.60
45137;DHT22;30894;51.740;19.498;2023-05-25T07:12:14;16.60;88.00
45137;DHT22;30894;51.740;19.498;2023-05-25T07:15:24;16.70;88.20
45137;DHT22;30894;51.740;19.498;2023-05-25T07:18:37;17.00;86.80
45137;DHT22;30894;51.740;19.498;2023-05-25T07:21:45;17.90;84.90
45137;DHT22;30894;51.740;19.498;2023-05-25T10:47:41;28.60;61.60
45137;DHT22;30894;51.740;19.498;2023-05-25T10:50:38;28.30;61.90
45137;DHT22;30894;51.740;19.498;2023-05-25T10:53:59;28.50;61.70
45137;DHT22;30894;51.740;19.498;2023-05-25T10:57:27;28.50;61.60
45137;DHT22;30894;51.740;19.498;2023-05-25T11:00:39;28.40;61.50
45137;DHT22;30894;51.740;19.498;2023-05-25T11:03:21;28.50;61.30
45137;DHT22;30894;51.740;19.498;2023-05-25T11:05:58;29.10;60.80
45137;DHT22;30894;51.740;19.498;2023-05-25T11:08:54;30.50;58.90
45137;DHT22;30894;51.740;19.498;2023-05-25T11:17:07;31.70;56.80
45137;DHT22;30894;51.740;19.498;2023-05-25T11:19:49;31.50;56.80
45137;DHT22;30894;51.740;19.498;2023-05-25T11:22:29;30.80;57.60
45137;DHT22;30894;51.740;19.498;2023-05-25T11:32:43;29.30;59.70
45137;DHT22;30894;51.740;19.498;2023-05-25T11:36:30;29.40;59.60
45137;DHT22;30894;51.740;19.498;2023-05-25T11:39:13;29.70;59.20
45137;DHT22;30894;51.740;19.498;2023-05-25T11:42:50;29.40;59.20
45137;DHT22;30894;51.740;19.498;2023-05-25T11:46:07;29.00;59.70
45137;DHT22;30894;51.740;19.498;2023-05-25T11:49:16;28.90;59.90
45137;DHT22;30894;51.740;19.498;2023-05-25T11:51:46;29.50;59.30
45137;DHT22;30894;51.740;19.498;2023-05-25T11:54:33;29.70;58.90
45137;DHT22;30894;51.740;19.498;2023-05-25T11:57:02;29.90;58.60
45137;DHT22;30894;51.740;19.498;2023-05-25T11:59:31;30.00;58.20
45137;DHT22;30894;51.740;19.498;2023-05-25T12:01:59;30.10;58.10
45137;DHT22;30894;51.740;19.498;2023-05-25T12:04:30;31.10;57.00
45137;DHT22;30894;51.740;19.498;2023-05-25T12:09:50;31.40;56.00
45137;DHT22;30894;51.740;19.498;2023-05-25T12:12:18;31.10;56.40
45137;DHT22;30894;51.740;19.498;2023-05-25T12:14:49;31.50;56.10
45137;DHT22;30894;51.740;19.498;2023-05-25T12:17:23;31.70;55.60
45137;DHT22;30894;51.740;19.498;2023-05-25T12:19:49;31.20;56.00
45137;DHT22;30894;51.740;19.498;2023-05-25T12:22:16;30.90;56.60
45137;DHT22;30894;51.740;19.498;2023-05-25T12:25:08;30.90;56.60
45137;DHT22;30894;51.740;19.498;2023-05-25T12:27:36;31.70;56.10
45137;DHT22;30894;51.740;19.498;2023-05-25T12:30:10;33.20;54.50
45137;DHT22;30894;51.740;19.498;2023-05-25T12:35:45;33.30;53.50
45137;DHT22;30894;51.740;19.498;2023-05-25T12:38:15;32.10;54.70
45137;DHT22;30894;51.740;19.498;2023-05-25T12:40:43;31.20;56.00
45137;DHT22;30894;51.740;19.498;2023-05-25T12:43:09;30.40;57.00
45137;DHT22;30894;51.740;19.498;2023-05-25T12:45:40;29.70;57.90
45137;DHT22;30894;51.740;19.498;2023-05-25T12:48:07;29.30;58.50
45137;DHT22;30894;51.740;19.498;2023-05-25T12:50:33;29.20;58.70
45137;DHT22;30894;51.740;19.498;2023-05-25T12:53:03;29.50;58.40
45137;DHT22;30894;51.740;19.498;2023-05-25T12:55:33;30.40;57.00
45137;DHT22;30894;51.740;19.498;2023-05-25T12:58:05;30.90;55.90
45137;DHT22;30894;51.740;19.498;2023-05-25T13:00:33;31.60;54.80
45137;DHT22;30894;51.740;19.498;2023-05-25T13:03:09;32.00;54.30
45137;DHT22;30894;51.740;19.498;2023-05-25T13:05:36;31.70;54.30
45137;DHT22;30894;51.740;19.498;2023-05-25T13:08:03;31.30;54.80
45137;DHT22;30894;51.740;19.498;2023-05-25T13:10:31;31.00;55.30
45137;DHT22;30894;51.740;19.498;2023-05-25T13:12:58;30.90;55.60
45137;DHT22;30894;51.740;19.498;2023-05-25T13:15:25;31.00;55.60
45137;DHT22;30894;51.740;19.498;2023-05-25T13:17:53;31.60;55.20
45137;DHT22;30894;51.740;19.498;2023-05-25T13:20:23;31.70;54.60
45137;DHT22;30894;51.740;19.498;2023-05-25T13:22:51;30.90;55.00
45137;DHT22;30894;51.740;19.498;2023-05-25T13:25:18;30.00;55.90
45137;DHT22;30894;51.740;19.498;2023-05-25T13:27:48;29.30;56.90
45137;DHT22;30894;51.740;19.498;2023-05-25T13:30:15;28.70;57.70
45137;DHT22;30894;51.740;19.498;2023-05-25T13:32:42;28.30;58.50
45137;DHT22;30894;51.740;19.498;2023-05-25T13:35:08;28.10;58.70
45137;DHT22;30894;51.740;19.498;2023-05-25T13:37:42;28.10;58.50
45137;DHT22;30894;51.740;19.498;2023-05-25T13:40:08;28.10;58.60
45137;DHT22;30894;51.740;19.498;2023-05-25T13:42:35;27.90;58.70
45137;DHT22;30894;51.740;19.498;2023-05-25T13:45:01;27.70;58.90
45137;DHT22;30894;51.740;19.498;2023-05-25T13:47:27;27.40;59.20
45137;DHT22;30894;51.740;19.498;2023-05-25T13:49:53;27.20;59.50
45137;DHT22;30894;51.740;19.498;2023-05-25T13:52:19;27.10;59.70
45137;DHT22;30894;51.740;19.498;2023-05-25T13:54:45;27.00;59.60
45137;DHT22;30894;51.740;19.498;2023-05-25T13:57:11;27.40;59.30
45137;DHT22;30894;51.740;19.498;2023-05-25T13:59:37;27.70;58.60
45137;DHT22;30894;51.740;19.498;2023-05-25T14:02:04;28.50;57.60
45137;DHT22;30894;51.740;19.498;2023-05-25T14:04:30;29.40;56.30
45137;DHT22;30894;51.740;19.498;2023-05-25T14:06:56;29.90;55.30
45137;DHT22;30894;51.740;19.498;2023-05-25T14:09:22;29.90;55.00
45137;DHT22;30894;51.740;19.498;2023-05-25T14:11:49;30.20;54.70
45137;DHT22;30894;51.740;19.498;2023-05-25T14:14:16;30.40;54.10
45137;DHT22;30894;51.740;19.498;2023-05-25T14:16:43;31.00;53.70
45137;DHT22;30894;51.740;19.498;2023-05-25T14:19:09;31.30;53.10
45137;DHT22;30894;51.740;19.498;2023-05-25T14:21:35;30.70;53.50
45137;DHT22;30894;51.740;19.498;2023-05-25T14:24:02;30.00;54.40
45137;DHT22;30894;51.740;19.498;2023-05-25T14:26:28;29.40;55.20
45137;DHT22;30894;51.740;19.498;2023-05-25T14:28:54;29.00;55.70
45137;DHT22;30894;51.740;19.498;2023-05-25T14:31:20;28.70;56.10
45137;DHT22;30894;51.740;19.498;2023-05-25T14:33:47;29.00;56.10
45137;DHT22;30894;51.740;19.498;2023-05-25T14:36:13;29.90;55.00
45137;DHT22;30894;51.740;19.498;2023-05-25T14:38:39;30.80;53.90
45137;DHT22;30894;51.740;19.498;2023-05-25T14:41:05;31.00;53.40
45137;DHT22;30894;51.740;19.498;2023-05-25T14:43:31;30.70;53.50
45137;DHT22;30894;51.740;19.498;2023-05-25T14:45:59;30.50;53.90
45137;DHT22;30894;51.740;19.498;2023-05-25T14:48:25;30.50;53.90
45137;DHT22;30894;51.740;19.498;2023-05-25T14:50:51;30.10;54.30
45137;DHT22;30894;51.740;19.498;2023-05-25T14:53:18;29.60;54.80
45137;DHT22;30894;51.740;19.498;2023-05-25T14:55:44;29.50;55.30
45137;DHT22;30894;51.740;19.498;2023-05-25T14:58:11;29.30;55.50
45137;DHT22;30894;51.740;19.498;2023-05-25T15:00:37;29.30;55.70
45137;DHT22;30894;51.740;19.498;2023-05-25T15:03:03;29.50;55.70
45137;DHT22;30894;51.740;19.498;2023-05-25T15:05:29;29.80;55.50
45137;DHT22;30894;51.740;19.498;2023-05-25T15:07:55;29.80;55.10
45137;DHT22;30894;51.740;19.498;2023-05-25T15:10:25;29.60;55.30
45137;DHT22;30894;51.740;19.498;2023-05-25T15:12:51;29.40;55.40
45137;DHT22;30894;51.740;19.498;2023-05-25T15:15:17;29.20;55.70
45137;DHT22;30894;51.740;19.498;2023-05-25T15:17:43;28.60;56.30
45137;DHT22;30894;51.740;19.498;2023-05-25T15:20:10;28.10;56.70
45137;DHT22;30894;51.740;19.498;2023-05-25T15:22:35;27.80;57.10
45137;DHT22;30894;51.740;19.498;2023-05-25T15:25:02;27.50;57.50
45137;DHT22;30894;51.740;19.498;2023-05-25T15:27:29;27.20;57.80
45137;DHT22;30894;51.740;19.498;2023-05-25T15:29:57;27.10;57.90
45137;DHT22;30894;51.740;19.498;2023-05-25T15:32:23;26.80;58.10
45137;DHT22;30894;51.740;19.498;2023-05-25T15:34:51;26.30;58.60
45137;DHT22;30894;51.740;19.498;2023-05-25T15:37:17;25.80;59.40
45137;DHT22;30894;51.740;19.498;2023-05-25T15:39:50;25.40;59.90
45137;DHT22;30894;51.740;19.498;2023-05-25T15:42:18;25.50;60.10
45137;DHT22;30894;51.740;19.498;2023-05-25T15:44:46;25.60;60.20
45137;DHT22;30894;51.740;19.498;2023-05-25T15:47:12;25.80;60.10
45137;DHT22;30894;51.740;19.498;2023-05-25T15:49:38;25.80;59.80
45137;DHT22;30894;51.740;19.498;2023-05-25T15:52:05;25.80;59.70
45137;DHT22;30894;51.740;19.498;2023-05-25T15:54:32;25.90;59.70
45137;DHT22;30894;51.740;19.498;2023-05-25T15:56:57;25.80;59.50
45137;DHT22;30894;51.740;19.498;2023-05-25T15:59:24;25.60;59.40
45137;DHT22;30894;51.740;19.498;2023-05-25T16:01:50;25.70;59.30
45137;DHT22;30894;51.740;19.498;2023-05-25T16:04:16;25.80;59.20
45137;DHT22;30894;51.740;19.498;2023-05-25T16:06:43;25.80;58.80
45137;DHT22;30894;51.740;19.498;2023-05-25T16:09:10;26.00;58.60
45137;DHT22;30894;51.740;19.498;2023-05-25T16:11:38;26.10;58.40
45137;DHT22;30894;51.740;19.498;2023-05-25T16:14:05;26.00;58.20
45137;DHT22;30894;51.740;19.498;2023-05-25T16:16:31;25.70;58.30
45137;DHT22;30894;51.740;19.498;2023-05-25T16:18:58;25.30;58.70
45137;DHT22;30894;51.740;19.498;2023-05-25T16:21:24;24.80;59.30
45137;DHT22;30894;51.740;19.498;2023-05-25T16:23:50;24.60;60.00
45137;DHT22;30894;51.740;19.498;2023-05-25T16:26:17;24.30;60.30
45137;DHT22;30894;51.740;19.498;2023-05-25T16:28:43;23.90;60.80
45137;DHT22;30894;51.740;19.498;2023-05-25T16:31:09;23.70;61.00
45137;DHT22;30894;51.740;19.498;2023-05-25T16:33:38;23.70;61.00
45137;DHT22;30894;51.740;19.498;2023-05-25T16:36:06;23.70;60.90
45137;DHT22;30894;51.740;19.498;2023-05-25T16:38:33;23.60;60.90
45137;DHT22;30894;51.740;19.498;2023-05-25T16:40:59;23.50;60.90
45137;DHT22;30894;51.740;19.498;2023-05-25T16:43:26;23.40;61.00
45137;DHT22;30894;51.740;19.498;2023-05-25T16:45:52;23.30;60.90
45137;DHT22;30894;51.740;19.498;2023-05-25T16:48:19;23.20;61.00
45137;DHT22;30894;51.740;19.498;2023-05-25T16:50:45;23.20;61.20
45137;DHT22;30894;51.740;19.498;2023-05-25T16:53:11;23.00;61.30
45137;DHT22;30894;51.740;19.498;2023-05-25T16:55:40;22.90;61.50
45137;DHT22;30894;51.740;19.498;2023-05-25T16:58:09;22.70;61.60
45137;DHT22;30894;51.740;19.498;2023-05-25T17:00:35;22.40;62.00
45137;DHT22;30894;51.740;19.498;2023-05-25T17:03:02;22.00;63.10
45137;DHT22;30894;51.740;19.498;2023-05-25T17:05:28;21.70;63.00
45137;DHT22;30894;51.740;19.498;2023-05-25T17:07:54;21.40;63.40
45137;DHT22;30894;51.740;19.498;2023-05-25T17:10:20;21.20;63.80
45137;DHT22;30894;51.740;19.498;2023-05-25T17:12:49;21.00;64.10
45137;DHT22;30894;51.740;19.498;2023-05-25T17:15:15;20.70;64.40
45137;DHT22;30894;51.740;19.498;2023-05-25T17:17:42;20.60;64.70
45137;DHT22;30894;51.740;19.498;2023-05-25T17:20:09;20.40;65.60
45137;DHT22;30894;51.740;19.498;2023-05-25T17:22:37;20.20;65.10
45137;DHT22;30894;51.740;19.498;2023-05-25T17:25:04;20.10;65.40
45137;DHT22;30894;51.740;19.498;2023-05-25T17:27:31;19.90;65.60
45137;DHT22;30894;51.740;19.498;2023-05-25T17:29:58;19.70;65.80
45137;DHT22;30894;51.740;19.498;2023-05-25T17:32:24;19.60;66.00
45137;DHT22;30894;51.740;19.498;2023-05-25T17:34:50;19.40;66.20
45137;DHT22;30894;51.740;19.498;2023-05-25T17:37:17;19.30;66.50
45137;DHT22;30894;51.740;19.498;2023-05-25T17:39:43;19.10;66.60
45137;DHT22;30894;51.740;19.498;2023-05-25T17:42:10;19.00;66.90
45137;DHT22;30894;51.740;19.498;2023-05-25T17:44:37;18.80;67.10
45137;DHT22;30894;51.740;19.498;2023-05-25T17:47:07;18.60;67.30
45137;DHT22;30894;51.740;19.498;2023-05-25T17:49:33;18.50;67.50
45137;DHT22;30894;51.740;19.498;2023-05-25T17:51:59;18.40;67.80
45137;DHT22;30894;51.740;19.498;2023-05-25T17:54:25;18.20;68.00
45137;DHT22;30894;51.740;19.498;2023-05-25T17:56:52;18.00;68.20
45137;DHT22;30894;51.740;19.498;2023-05-25T17:59:19;17.90;68.40
45137;DHT22;30894;51.740;19.498;2023-05-25T18:01:45;17.70;68.60
45137;DHT22;30894;51.740;19.498;2023-05-25T18:04:12;17.60;68.80
45137;DHT22;30894;51.740;19.498;2023-05-25T18:06:39;17.40;69.00
45137;DHT22;30894;51.740;19.498;2023-05-25T18:09:09;17.30;69.30
45137;DHT22;30894;51.740;19.498;2023-05-25T18:11:36;17.20;69.50
45137;DHT22;30894;51.740;19.498;2023-05-25T18:14:03;17.00;69.60
45137;DHT22;30894;51.740;19.498;2023-05-25T18:16:32;17.00;69.70
45137;DHT22;30894;51.740;19.498;2023-05-25T18:19:05;16.90;69.80
45137;DHT22;30894;51.740;19.498;2023-05-25T18:21:33;16.80;69.90
45137;DHT22;30894;51.740;19.498;2023-05-25T18:24:00;16.70;70.00
45137;DHT22;30894;51.740;19.498;2023-05-25T18:26:30;16.60;70.10
45137;DHT22;30894;51.740;19.498;2023-05-25T18:28:56;16.60;70.20
45137;DHT22;30894;51.740;19.498;2023-05-25T18:32:01;16.50;70.30
45137;DHT22;30894;51.740;19.498;2023-05-25T18:34:32;16.40;70.50
45137;DHT22;30894;51.740;19.498;2023-05-25T18:37:14;16.30;70.50
45137;DHT22;30894;51.740;19.498;2023-05-25T18:39:50;16.20;70.70
45137;DHT22;30894;51.740;19.498;2023-05-25T18:42:19;16.10;70.90
45137;DHT22;30894;51.740;19.498;2023-05-25T18:44:46;16.00;70.90
45137;DHT22;30894;51.740;19.498;2023-05-25T18:47:12;16.00;70.90
45137;DHT22;30894;51.740;19.498;2023-05-25T18:49:43;16.00;71.00
45137;DHT22;30894;51.740;19.498;2023-05-25T18:52:13;15.90;71.10
45137;DHT22;30894;51.740;19.498;2023-05-25T18:54:39;15.80;71.20
45137;DHT22;30894;51.740;19.498;2023-05-25T18:57:06;15.70;71.30
45137;DHT22;30894;51.740;19.498;2023-05-25T18:59:36;15.70;71.50
45137;DHT22;30894;51.740;19.498;2023-05-25T19:02:02;15.60;71.50
45137;DHT22;30894;51.740;19.498;2023-05-25T19:04:31;15.60;71.60
45137;DHT22;30894;51.740;19.498;2023-05-25T19:06:58;15.50;71.70
45137;DHT22;30894;51.740;19.498;2023-05-25T19:09:24;15.40;71.70
45137;DHT22;30894;51.740;19.498;2023-05-25T19:11:53;15.30;71.90
45137;DHT22;30894;51.740;19.498;2023-05-25T19:14:19;15.20;72.10
45137;DHT22;30894;51.740;19.498;2023-05-25T19:16:45;15.10;72.20
45137;DHT22;30894;51.740;19.498;2023-05-25T19:19:15;15.10;72.50
45137;DHT22;30894;51.740;19.498;2023-05-25T19:21:49;15.00;72.50
45137;DHT22;30894;51.740;19.498;2023-05-25T19:24:16;15.00;72.60
45137;DHT22;30894;51.740;19.498;2023-05-25T19:26:50;14.90;72.60
45137;DHT22;30894;51.740;19.498;2023-05-25T19:29:17;14.90;72.70
45137;DHT22;30894;51.740;19.498;2023-05-25T19:31:48;14.80;72.50
45137;DHT22;30894;51.740;19.498;2023-05-25T19:34:17;14.80;72.70
45137;DHT22;30894;51.740;19.498;2023-05-25T19:36:44;14.80;72.90
45137;DHT22;30894;51.740;19.498;2023-05-25T19:39:11;14.70;72.80
45137;DHT22;30894;51.740;19.498;2023-05-25T19:41:40;14.70;72.80
45137;DHT22;30894;51.740;19.498;2023-05-25T19:44:07;14.70;72.90
45137;DHT22;30894;51.740;19.498;2023-05-25T19:46:40;14.70;72.80
45137;DHT22;30894;51.740;19.498;2023-05-25T19:49:13;14.80;72.80
45137;DHT22;30894;51.740;19.498;2023-05-25T19:51:39;14.80;72.60
45137;DHT22;30894;51.740;19.498;2023-05-25T19:54:09;14.90;72.40
45137;DHT22;30894;51.740;19.498;2023-05-25T19:56:39;15.00;72.20
45137;DHT22;30894;51.740;19.498;2023-05-25T19:59:05;15.10;72.00
45137;DHT22;30894;51.740;19.498;2023-05-25T20:01:37;15.20;71.90
45137;DHT22;30894;51.740;19.498;2023-05-25T20:04:07;15.20;71.70
45137;DHT22;30894;51.740;19.498;2023-05-25T20:06:35;15.30;71.60
45137;DHT22;30894;51.740;19.498;2023-05-25T20:09:02;15.30;71.50
45137;DHT22;30894;51.740;19.498;2023-05-25T20:11:30;15.40;71.50
45137;DHT22;30894;51.740;19.498;2023-05-25T20:14:05;15.40;71.40
45137;DHT22;30894;51.740;19.498;2023-05-25T20:16:33;15.50;71.40
45137;DHT22;30894;51.740;19.498;2023-05-25T20:19:07;15.50;71.30
45137;DHT22;30894;51.740;19.498;2023-05-25T20:21:48;15.50;71.20
45137;DHT22;30894;51.740;19.498;2023-05-25T20:24:23;15.60;71.20
45137;DHT22;30894;51.740;19.498;2023-05-25T20:27:02;15.60;71.10
45137;DHT22;30894;51.740;19.498;2023-05-25T20:29:30;15.60;71.10
45137;DHT22;30894;51.740;19.498;2023-05-25T20:31:57;15.60;71.10
45137;DHT22;30894;51.740;19.498;2023-05-25T20:34:25;15.70;71.10
45137;DHT22;30894;51.740;19.498;2023-05-25T20:36:52;15.70;71.00
45137;DHT22;30894;51.740;19.498;2023-05-25T20:39:21;15.80;71.00
45137;DHT22;30894;51.740;19.498;2023-05-25T20:41:48;15.80;71.00
45137;DHT22;30894;51.740;19.498;2023-05-25T20:44:20;15.80;70.90
45137;DHT22;30894;51.740;19.498;2023-05-25T20:46:46;15.90;71.00
45137;DHT22;30894;51.740;19.498;2023-05-25T20:49:12;15.90;71.10
45137;DHT22;30894;51.740;19.498;2023-05-25T20:51:42;15.80;71.10
45137;DHT22;30894;51.740;19.498;2023-05-25T20:54:17;15.80;71.20
45137;DHT22;30894;51.740;19.498;2023-05-25T20:56:44;15.80;71.30
45137;DHT22;30894;51.740;19.498;2023-05-25T20:59:12;15.70;71.40
45137;DHT22;30894;51.740;19.498;2023-05-25T21:01:38;15.70;71.50
45137;DHT22;30894;51.740;19.498;2023-05-25T21:04:05;15.70;71.60
45137;DHT22;30894;51.740;19.498;2023-05-25T21:06:31;15.70;71.60
45137;DHT22;30894;51.740;19.498;2023-05-25T21:08:57;15.70;71.70
45137;DHT22;30894;51.740;19.498;2023-05-25T21:11:23;15.70;71.80
45137;DHT22;30894;51.740;19.498;2023-05-25T21:13:50;15.70;71.80
45137;DHT22;30894;51.740;19.498;2023-05-25T21:16:16;15.70;71.80
45137;DHT22;30894;51.740;19.498;2023-05-25T21:18:42;15.70;71.90
45137;DHT22;30894;51.740;19.498;2023-05-25T21:21:08;15.80;71.90
45137;DHT22;30894;51.740;19.498;2023-05-25T21:23:35;15.80;71.90
45137;DHT22;30894;51.740;19.498;2023-05-25T21:26:02;15.80;71.80
45137;DHT22;30894;51.740;19.498;2023-05-25T21:28:28;15.80;71.80
45137;DHT22;30894;51.740;19.498;2023-05-25T21:30:54;15.90;71.80
45137;DHT22;30894;51.740;19.498;2023-05-25T21:33:20;15.90;71.80
45137;DHT22;30894;51.740;19.498;2023-05-25T21:35:47;16.00;71.70
45137;DHT22;30894;51.740;19.498;2023-05-25T21:38:18;16.00;71.70
45137;DHT22;30894;51.740;19.498;2023-05-25T21:40:48;16.00;71.70
45137;DHT22;30894;51.740;19.498;2023-05-25T21:43:14;16.00;71.70
45137;DHT22;30894;51.740;19.498;2023-05-25T21:45:40;16.10;71.80
45137;DHT22;30894;51.740;19.498;2023-05-25T21:48:06;16.10;71.80
45137;DHT22;30894;51.740;19.498;2023-05-25T21:50:35;16.10;71.80
45137;DHT22;30894;51.740;19.498;2023-05-25T21:53:01;16.10;71.90
45137;DHT22;30894;51.740;19.498;2023-05-25T21:55:27;16.10;71.90
45137;DHT22;30894;51.740;19.498;2023-05-25T21:57:53;16.10;72.00
45137;DHT22;30894;51.740;19.498;2023-05-25T22:00:19;16.00;72.00
45137;DHT22;30894;51.740;19.498;2023-05-25T22:02:45;16.10;72.20
45137;DHT22;30894;51.740;19.498;2023-05-25T22:05:15;16.00;72.20
45137;DHT22;30894;51.740;19.498;2023-05-25T22:07:41;16.00;72.40
45137;DHT22;30894;51.740;19.498;2023-05-25T22:10:07;16.00;72.50
45137;DHT22;30894;51.740;19.498;2023-05-25T22:12:34;15.90;72.50
45137;DHT22;30894;51.740;19.498;2023-05-25T22:15:00;16.00;72.70
45137;DHT22;30894;51.740;19.498;2023-05-25T22:17:26;15.90;72.80
45137;DHT22;30894;51.740;19.498;2023-05-25T22:19:52;15.90;72.90